Time;durP1;ratioP1;P1;durP2;ratioP2;P2;SDS_P1;SDS_P2;PMS_P1;PMS_P2;Temp;Humidity;BMP_temperature;BMP_pressure;BME280_temperature;BME280_humidity;BME280_pressure;Samples;Min_cycle;Max_cycle;Signal;HPM_P1;HPM_P2
2023/05/10 00:02:23;;;;;;;;;;;15.40;97.60;;;;;;5045017;28;19920;-68
2023/05/10 00:04:48;;;;;;;;;;;15.30;97.50;;;;;;5045458;28;19920;-68
2023/05/10 00:07:14;;;;;;;;;;;15.30;97.80;;;;;;5045245;28;20548;-68
2023/05/10 00:09:39;;;;;;;;;;;15.30;97.60;;;;;;5045194;28;20012;-68
2023/05/10 00:12:05;;;;;;;;;;;15.30;97.60;;;;;;5044927;28;19920;-68
2023/05/10 00:14:31;;;;;;;;;;;15.30;97.50;;;;;;5045168;28;20001;-68
2023/05/10 00:16:56;;;;;;;;;;;15.30;97.60;;;;;;5044644;28;19996;-68
2023/05/10 00:19:22;;;;;;;;;;;15.30;97.70;;;;;;5045087;28;19916;-68
2023/05/10 00:21:47;;;;;;;;;;;15.20;97.80;;;;;;5044699;28;19989;-68
2023/05/10 00:24:13;;;;;;;;;;;15.20;97.60;;;;;;5045492;28;20331;-68
2023/05/10 00:26:38;;;;;;;;;;;15.20;97.70;;;;;;5045200;28;19999;-68
2023/05/10 00:29:04;;;;;;;;;;;15.20;97.70;;;;;;5044991;28;19913;-68
2023/05/10 00:31:29;;;;;;;;;;;15.20;97.70;;;;;;5045266;28;20551;-68
2023/05/10 00:33:55;;;;;;;;;;;15.20;97.60;;;;;;5030211;28;19917;-68
2023/05/10 00:36:21;;;;;;;;;;;15.20;97.70;;;;;;5048546;28;20024;-68
2023/05/10 00:38:46;;;;;;;;;;;15.20;97.70;;;;;;5030325;28;19919;-68
2023/05/10 00:41:12;;;;;;;;;;;15.20;97.70;;;;;;5048470;28;20437;-68
2023/05/10 00:43:37;;;;;;;;;;;15.10;97.80;;;;;;5047839;28;19947;-68
2023/05/10 00:46:03;;;;;;;;;;;15.10;97.90;;;;;;5030462;28;20040;-68
2023/05/10 00:48:29;;;;;;;;;;;15.10;97.70;;;;;;5021564;28;19913;-68
2023/05/10 00:50:55;;;;;;;;;;;15.10;97.60;;;;;;5048340;28;20399;-68
2023/05/10 00:53:21;;;;;;;;;;;15.10;97.60;;;;;;5047671;28;20396;-68
2023/05/10 00:55:47;;;;;;;;;;;15.10;97.60;;;;;;5030440;28;19917;-68
2023/05/10 00:58:12;;;;;;;;;;;15.10;97.80;;;;;;5048336;28;19985;-68
2023/05/10 01:00:41;;;;;;;;;;;15.10;97.80;;;;;;5031224;28;20356;-68
2023/05/10 01:03:06;;;;;;;;;;;15.10;97.70;;;;;;5047609;28;19913;-68
2023/05/10 01:05:32;;;;;;;;;;;15.00;97.80;;;;;;5030321;28;20250;-68
2023/05/10 01:07:57;;;;;;;;;;;15.00;97.80;;;;;;5047829;28;19913;-68
2023/05/10 01:10:23;;;;;;;;;;;15.10;97.80;;;;;;5047929;28;19919;-68
2023/05/10 01:12:49;;;;;;;;;;;15.00;97.70;;;;;;5047638;28;19916;-68
2023/05/10 01:15:15;;;;;;;;;;;15.00;97.70;;;;;;5047919;28;19924;-68
2023/05/10 01:17:42;;;;;;;;;;;15.00;97.90;;;;;;5047139;27;20024;-68
2023/05/10 01:20:09;;;;;;;;;;;15.00;97.70;;;;;;5047610;28;19917;-68
2023/05/10 01:22:53;;;;;;;;;;;15.00;97.70;;;;;;5047378;28;20583;-68
2023/05/10 01:25:38;;;;;;;;;;;14.90;97.80;;;;;;5047770;28;19963;-68
2023/05/10 01:28:04;;;;;;;;;;;14.90;97.80;;;;;;5047575;28;20408;-68
2023/05/10 01:30:52;;;;;;;;;;;15.00;97.60;;;;;;5047561;27;19912;-68
2023/05/10 01:33:30;;;;;;;;;;;14.90;97.60;;;;;;5029197;28;20663;-68
2023/05/10 01:36:14;;;;;;;;;;;15.00;97.70;;;;;;5047308;28;19917;-69
2023/05/10 01:38:47;;;;;;;;;;;15.00;97.70;;;;;;5047248;28;19921;-68
2023/05/10 01:41:21;;;;;;;;;;;14.90;97.70;;;;;;5047276;28;19936;-68
2023/05/10 01:43:50;;;;;;;;;;;14.90;97.60;;;;;;5045907;28;20266;-68
2023/05/10 01:46:17;;;;;;;;;;;14.90;97.70;;;;;;5046029;28;19920;-68
2023/05/10 01:48:51;;;;;;;;;;;14.90;97.90;;;;;;5040321;28;19913;-68
2023/05/10 01:51:21;;;;;;;;;;;14.90;97.80;;;;;;5047392;28;20000;-68
2023/05/10 01:53:47;;;;;;;;;;;14.90;97.80;;;;;;5046866;28;19944;-68
2023/05/10 01:56:14;;;;;;;;;;;14.90;97.80;;;;;;5047263;28;19925;-68
2023/05/10 01:58:40;;;;;;;;;;;14.80;97.90;;;;;;5047076;28;19913;-68
2023/05/10 02:01:07;;;;;;;;;;;14.80;97.90;;;;;;5047271;28;19920;-68
2023/05/10 02:03:34;;;;;;;;;;;14.80;97.80;;;;;;5028665;28;20437;-68
2023/05/10 02:05:59;;;;;;;;;;;14.80;97.90;;;;;;5047114;28;19954;-68
2023/05/10 02:08:25;;;;;;;;;;;14.80;97.90;;;;;;5046903;28;20479;-68
2023/05/10 02:10:54;;;;;;;;;;;14.80;97.70;;;;;;5047194;28;20063;-68
2023/05/10 02:13:21;;;;;;;;;;;14.80;97.80;;;;;;5046735;28;19944;-68
2023/05/10 02:15:47;;;;;;;;;;;14.80;98.00;;;;;;5029067;28;20329;-68
2023/05/10 02:18:13;;;;;;;;;;;14.80;97.80;;;;;;5028317;28;19917;-68
2023/05/10 02:20:39;;;;;;;;;;;14.80;97.80;;;;;;5046663;28;19919;-68
2023/05/10 02:23:05;;;;;;;;;;;14.70;97.70;;;;;;5046282;28;19919;-68
2023/05/10 02:25:31;;;;;;;;;;;14.80;97.80;;;;;;5047026;28;19920;-68
2023/05/10 02:27:57;;;;;;;;;;;14.80;97.80;;;;;;5046912;28;19909;-69
2023/05/10 02:30:23;;;;;;;;;;;14.70;97.80;;;;;;5046821;28;20718;-68
2023/05/10 02:32:49;;;;;;;;;;;14.70;97.80;;;;;;5046403;28;20003;-68
2023/05/10 02:35:15;;;;;;;;;;;14.70;98.00;;;;;;5046743;28;20644;-68
2023/05/10 02:37:41;;;;;;;;;;;14.70;98.00;;;;;;5046341;28;19909;-68
2023/05/10 02:40:08;;;;;;;;;;;14.70;98.00;;;;;;5046519;28;19920;-68
2023/05/10 02:42:35;;;;;;;;;;;14.70;98.00;;;;;;5028281;28;20553;-68
2023/05/10 02:45:02;;;;;;;;;;;14.70;98.00;;;;;;5028727;28;19936;-68
2023/05/10 02:47:28;;;;;;;;;;;14.60;97.90;;;;;;5045808;28;20388;-68
2023/05/10 02:49:54;;;;;;;;;;;14.70;98.10;;;;;;5046423;28;19943;-68
2023/05/10 02:52:23;;;;;;;;;;;14.60;98.00;;;;;;5045894;28;20381;-68
2023/05/10 02:54:50;;;;;;;;;;;14.60;97.80;;;;;;5046129;28;20545;-68
2023/05/10 02:57:17;;;;;;;;;;;14.60;97.90;;;;;;5045689;28;19920;-68
2023/05/10 02:59:44;;;;;;;;;;;14.60;98.00;;;;;;5046174;28;19920;-68
2023/05/10 03:02:11;;;;;;;;;;;14.60;98.00;;;;;;5045697;28;19912;-68
2023/05/10 03:04:36;;;;;;;;;;;14.60;98.10;;;;;;5046354;28;20003;-68
2023/05/10 03:07:02;;;;;;;;;;;14.60;98.10;;;;;;5045957;28;20030;-68
2023/05/10 03:09:28;;;;;;;;;;;14.60;98.00;;;;;;5045109;28;20521;-68
2023/05/10 03:11:56;;;;;;;;;;;14.60;98.20;;;;;;5045975;28;19913;-68
2023/05/10 03:14:33;;;;;;;;;;;14.50;98.20;;;;;;5046158;28;19909;-68
2023/05/10 03:17:02;;;;;;;;;;;14.50;98.30;;;;;;5041628;27;19969;-68
2023/05/10 03:19:30;;;;;;;;;;;14.50;98.30;;;;;;5043050;28;19913;-68
2023/05/10 03:21:58;;;;;;;;;;;14.50;98.30;;;;;;5033593;28;19972;-68
2023/05/10 03:24:27;;;;;;;;;;;14.50;98.40;;;;;;5041934;28;19917;-68
2023/05/10 03:26:55;;;;;;;;;;;14.50;98.50;;;;;;5045678;28;19920;-68
2023/05/10 03:29:21;;;;;;;;;;;14.50;98.50;;;;;;5045603;28;19913;-68
2023/05/10 03:31:47;;;;;;;;;;;14.50;98.50;;;;;;5045392;28;19909;-68
2023/05/10 03:34:12;;;;;;;;;;;14.40;98.50;;;;;;5045271;28;19919;-68
2023/05/10 03:36:38;;;;;;;;;;;14.50;98.40;;;;;;5045410;28;19924;-68
2023/05/10 03:39:04;;;;;;;;;;;14.50;98.40;;;;;;5027336;28;20425;-68
2023/05/10 03:41:29;;;;;;;;;;;14.40;98.40;;;;;;5041172;28;19913;-68
2023/05/10 03:43:55;;;;;;;;;;;14.40;98.40;;;;;;5045056;28;20726;-68
2023/05/10 03:46:20;;;;;;;;;;;14.40;98.40;;;;;;5045515;28;19947;-68
2023/05/10 03:48:46;;;;;;;;;;;14.40;98.40;;;;;;5045120;28;20695;-68
2023/05/10 03:51:11;;;;;;;;;;;14.40;98.50;;;;;;5027387;28;19913;-68
2023/05/10 03:53:37;;;;;;;;;;;14.40;98.50;;;;;;5044895;28;19924;-68
2023/05/10 03:56:02;;;;;;;;;;;14.40;98.40;;;;;;5045310;28;19966;-68
2023/05/10 03:58:28;;;;;;;;;;;14.40;98.50;;;;;;5027296;28;20007;-68
2023/05/10 04:00:53;;;;;;;;;;;14.40;98.50;;;;;;5045361;28;20242;-68
2023/05/10 04:03:20;;;;;;;;;;;14.40;98.50;;;;;;5044756;28;19919;-68
2023/05/10 04:05:45;;;;;;;;;;;14.30;98.50;;;;;;5060306;28;19919;-68
2023/05/10 04:08:10;;;;;;;;;;;14.30;98.20;;;;;;5047891;28;19909;-68
2023/05/10 04:10:36;;;;;;;;;;;14.30;98.50;;;;;;5048824;28;20323;-68
2023/05/10 04:13:01;;;;;;;;;;;14.30;98.40;;;;;;5048246;28;19965;-68
2023/05/10 04:15:27;;;;;;;;;;;14.30;98.40;;;;;;5048512;28;20023;-68
2023/05/10 04:17:53;;;;;;;;;;;14.30;98.40;;;;;;5030029;28;20248;-68
2023/05/10 04:20:18;;;;;;;;;;;14.30;98.20;;;;;;5048362;28;20262;-68
2023/05/10 04:22:44;;;;;;;;;;;14.30;98.20;;;;;;5048030;28;19917;-68
2023/05/10 04:25:09;;;;;;;;;;;14.30;98.30;;;;;;5048800;28;20405;-68
2023/05/10 04:27:35;;;;;;;;;;;14.30;98.20;;;;;;5048380;28;20007;-68
2023/05/10 04:30:01;;;;;;;;;;;14.30;98.10;;;;;;5048523;28;20295;-68
2023/05/10 04:32:26;;;;;;;;;;;14.30;98.20;;;;;;5048165;28;19944;-68
2023/05/10 04:34:52;;;;;;;;;;;14.30;98.10;;;;;;5048863;28;19935;-68
2023/05/10 04:37:18;;;;;;;;;;;14.30;98.20;;;;;;5048291;28;20416;-68
2023/05/10 04:39:43;;;;;;;;;;;14.30;98.20;;;;;;5030499;28;20024;-68
2023/05/10 04:42:09;;;;;;;;;;;14.20;98.40;;;;;;5047724;28;19999;-68
2023/05/10 04:44:35;;;;;;;;;;;14.20;98.40;;;;;;5048249;28;19913;-68
2023/05/10 04:47:02;;;;;;;;;;;14.20;98.20;;;;;;5040567;28;19949;-68
2023/05/10 04:49:27;;;;;;;;;;;14.30;98.40;;;;;;5028866;28;19909;-68
2023/05/10 04:51:53;;;;;;;;;;;14.20;98.30;;;;;;5030818;28;20009;-69
2023/05/10 04:54:18;;;;;;;;;;;14.20;98.30;;;;;;5047834;28;19912;-68
2023/05/10 04:56:44;;;;;;;;;;;14.20;98.40;;;;;;5029653;28;19956;-68
2023/05/10 04:59:09;;;;;;;;;;;14.20;98.30;;;;;;5047775;28;19931;-68
2023/05/10 05:01:35;;;;;;;;;;;14.20;98.30;;;;;;5047988;28;19945;-68
2023/05/10 05:04:01;;;;;;;;;;;14.20;98.30;;;;;;5047198;28;20338;-68
2023/05/10 05:06:27;;;;;;;;;;;14.20;98.20;;;;;;5048134;27;19916;-68
2023/05/10 05:08:52;;;;;;;;;;;14.20;98.20;;;;;;5047946;28;19954;-68
2023/05/10 05:11:18;;;;;;;;;;;14.20;98.20;;;;;;5048033;28;19917;-69
2023/05/10 05:13:43;;;;;;;;;;;14.20;98.10;;;;;;5047475;28;19912;-68
2023/05/10 05:16:09;;;;;;;;;;;14.20;98.20;;;;;;5044735;27;19917;-68
2023/05/10 05:18:35;;;;;;;;;;;14.20;98.30;;;;;;5046049;28;19916;-68
2023/05/10 05:21:00;;;;;;;;;;;14.20;98.30;;;;;;5047904;28;19985;-68
2023/05/10 05:23:26;;;;;;;;;;;14.20;98.30;;;;;;5047539;28;19959;-68
2023/05/10 05:25:54;;;;;;;;;;;14.20;98.20;;;;;;5044348;28;20423;-68
2023/05/10 05:28:20;;;;;;;;;;;14.20;98.30;;;;;;5043008;28;19952;-68
2023/05/10 05:30:45;;;;;;;;;;;14.20;98.20;;;;;;5045815;28;19912;-68
2023/05/10 05:33:12;;;;;;;;;;;14.20;98.30;;;;;;5044657;28;19913;-68
2023/05/10 05:35:38;;;;;;;;;;;14.20;98.20;;;;;;5045928;28;20641;-68
2023/05/10 05:38:03;;;;;;;;;;;14.20;98.20;;;;;;5044294;28;19960;-68
2023/05/10 05:40:29;;;;;;;;;;;14.20;98.20;;;;;;5047056;28;19919;-68
2023/05/10 05:42:55;;;;;;;;;;;14.20;98.20;;;;;;5043189;28;20422;-68
2023/05/10 05:45:21;;;;;;;;;;;14.20;98.30;;;;;;5047630;28;19913;-68
2023/05/10 05:47:47;;;;;;;;;;;14.20;98.10;;;;;;5042508;28;19955;-68
2023/05/10 05:50:12;;;;;;;;;;;14.20;98.10;;;;;;5047446;28;19913;-69
2023/05/10 05:52:38;;;;;;;;;;;14.20;98.20;;;;;;5042515;28;19916;-69
2023/05/10 05:55:03;;;;;;;;;;;14.20;98.20;;;;;;5047463;27;19919;-68
2023/05/10 05:57:30;;;;;;;;;;;14.20;98.30;;;;;;5028482;28;20406;-68
2023/05/10 05:59:55;;;;;;;;;;;14.20;98.20;;;;;;5047213;28;19923;-68
2023/05/10 06:02:21;;;;;;;;;;;14.30;98.20;;;;;;5042402;28;19912;-68
2023/05/10 06:04:46;;;;;;;;;;;14.20;98.20;;;;;;5046877;28;19913;-68
2023/05/10 06:07:12;;;;;;;;;;;14.30;98.30;;;;;;5028213;28;19913;-68
2023/05/10 06:09:37;;;;;;;;;;;14.30;98.20;;;;;;5032261;28;20411;-68
2023/05/10 06:12:03;;;;;;;;;;;14.30;98.10;;;;;;5042486;28;19917;-68
2023/05/10 06:14:28;;;;;;;;;;;14.30;98.20;;;;;;5046786;28;20474;-68
2023/05/10 06:16:54;;;;;;;;;;;14.30;98.20;;;;;;5042839;27;20399;-69
2023/05/10 06:19:19;;;;;;;;;;;14.30;98.40;;;;;;5046364;28;19921;-69
2023/05/10 06:21:45;;;;;;;;;;;14.30;98.40;;;;;;5027799;28;19921;-68
2023/05/10 06:24:11;;;;;;;;;;;14.30;98.40;;;;;;5040274;28;19909;-68
2023/05/10 06:26:36;;;;;;;;;;;14.30;98.30;;;;;;5042747;28;19923;-68
2023/05/10 06:29:02;;;;;;;;;;;14.40;98.40;;;;;;5046326;28;19955;-69
2023/05/10 06:31:27;;;;;;;;;;;14.40;98.30;;;;;;5042159;28;19913;-69
2023/05/10 06:33:53;;;;;;;;;;;14.40;98.40;;;;;;5045542;28;20066;-68
2023/05/10 06:36:18;;;;;;;;;;;14.40;98.20;;;;;;5043255;28;19917;-68
2023/05/10 06:38:44;;;;;;;;;;;14.40;98.40;;;;;;5046252;28;19913;-68
2023/05/10 06:41:09;;;;;;;;;;;14.50;98.40;;;;;;5043304;28;20396;-68
2023/05/10 06:43:35;;;;;;;;;;;14.50;98.40;;;;;;5045184;28;20003;-69
2023/05/10 06:46:00;;;;;;;;;;;14.50;98.20;;;;;;5028385;27;19921;-68
2023/05/10 06:48:26;;;;;;;;;;;14.50;98.20;;;;;;5035656;27;20003;-68
2023/05/10 06:50:51;;;;;;;;;;;14.60;98.10;;;;;;5031743;27;19935;-68
2023/05/10 06:53:17;;;;;;;;;;;14.60;98.10;;;;;;5040333;28;19917;-68
2023/05/10 06:55:43;;;;;;;;;;;14.60;98.10;;;;;;5026798;28;19917;-68
2023/05/10 06:58:08;;;;;;;;;;;14.60;98.00;;;;;;5038165;28;19938;-68
2023/05/10 07:00:34;;;;;;;;;;;14.60;98.00;;;;;;5045024;28;19917;-68
2023/05/10 07:02:59;;;;;;;;;;;14.70;98.00;;;;;;5042462;28;20529;-68
2023/05/10 07:05:27;;;;;;;;;;;14.70;97.90;;;;;;5046255;28;19916;-68
2023/05/10 07:07:53;;;;;;;;;;;14.70;97.90;;;;;;5041688;28;19962;-68
2023/05/10 07:10:19;;;;;;;;;;;14.70;97.80;;;;;;5046316;28;20305;-68
2023/05/10 07:12:44;;;;;;;;;;;14.80;97.80;;;;;;5027351;28;19915;-69
2023/05/10 07:15:10;;;;;;;;;;;14.90;97.70;;;;;;5045963;28;19955;-69
2023/05/10 07:17:35;;;;;;;;;;;14.90;97.70;;;;;;5041066;28;19913;-70
2023/05/10 07:20:01;;;;;;;;;;;14.90;97.70;;;;;;5045848;28;19916;-70
2023/05/10 07:22:27;;;;;;;;;;;14.90;97.70;;;;;;5040700;28;19927;-69
2023/05/10 07:24:52;;;;;;;;;;;14.90;97.80;;;;;;5027551;28;19913;-69
2023/05/10 07:27:18;;;;;;;;;;;15.00;98.00;;;;;;5041550;28;20326;-69
2023/05/10 07:29:43;;;;;;;;;;;15.00;97.80;;;;;;5045944;28;19929;-69
2023/05/10 07:32:09;;;;;;;;;;;15.00;97.70;;;;;;5041133;28;19912;-70
2023/05/10 07:34:34;;;;;;;;;;;15.00;97.80;;;;;;5045550;28;19908;-70
2023/05/10 07:37:00;;;;;;;;;;;15.10;97.70;;;;;;5041179;28;20015;-70
2023/05/10 07:39:26;;;;;;;;;;;15.10;97.60;;;;;;5045680;28;19913;-70
2023/05/10 07:41:51;;;;;;;;;;;15.10;97.70;;;;;;5039815;28;19913;-70
2023/05/10 07:44:18;;;;;;;;;;;15.10;97.70;;;;;;5045359;28;19981;-69
2023/05/10 07:46:44;;;;;;;;;;;15.20;97.70;;;;;;5041062;28;19913;-70
2023/05/10 07:49:09;;;;;;;;;;;15.20;97.80;;;;;;5045240;28;19969;-70
2023/05/10 07:51:35;;;;;;;;;;;15.20;97.50;;;;;;5041157;28;19920;-71
2023/05/10 07:54:02;;;;;;;;;;;15.30;97.40;;;;;;5044983;28;19977;-69
2023/05/10 07:56:32;;;;;;;;;;;15.30;97.40;;;;;;5041065;28;19940;-70
2023/05/10 07:59:01;;;;;;;;;;;15.40;97.50;;;;;;5039268;28;19917;-69
2023/05/10 08:01:29;;;;;;;;;;;15.40;97.50;;;;;;5041030;28;19914;-70
2023/05/10 08:03:55;;;;;;;;;;;15.40;97.50;;;;;;5044630;28;19917;-69
2023/05/10 08:06:21;;;;;;;;;;;15.40;97.70;;;;;;5024432;28;20282;-70
2023/05/10 08:08:49;;;;;;;;;;;15.40;97.30;;;;;;5044770;28;19913;-69
2023/05/10 08:11:15;;;;;;;;;;;15.50;97.30;;;;;;5041101;28;20350;-70
2023/05/10 08:13:41;;;;;;;;;;;15.50;97.30;;;;;;5044423;28;19974;-69
2023/05/10 08:16:07;;;;;;;;;;;15.50;97.20;;;;;;5041572;28;19921;-70
2023/05/10 08:18:32;;;;;;;;;;;15.60;97.30;;;;;;5043107;28;19969;-70
2023/05/10 08:20:58;;;;;;;;;;;15.60;97.30;;;;;;5025549;28;19921;-70
2023/05/10 08:23:23;;;;;;;;;;;15.70;97.20;;;;;;5041797;28;20365;-70
2023/05/10 08:25:49;;;;;;;;;;;15.70;97.20;;;;;;5043551;28;19956;-71
2023/05/10 08:28:14;;;;;;;;;;;15.70;97.20;;;;;;5042462;28;19935;-70
2023/05/10 08:30:40;;;;;;;;;;;15.70;97.20;;;;;;5043804;28;19913;-70
2023/05/10 08:33:05;;;;;;;;;;;15.70;97.20;;;;;;5041753;28;19936;-70
2023/05/10 08:35:32;;;;;;;;;;;15.70;97.20;;;;;;5044492;28;19913;-70
2023/05/10 08:37:58;;;;;;;;;;;15.70;97.30;;;;;;5041828;28;19928;-70
2023/05/10 08:40:24;;;;;;;;;;;15.70;97.30;;;;;;5044714;28;19965;-70
2023/05/10 08:42:59;;;;;;;;;;;15.70;97.30;;;;;;5025916;28;19920;-70
2023/05/10 08:45:24;;;;;;;;;;;15.80;97.30;;;;;;5044656;28;19920;-71
2023/05/10 08:47:51;;;;;;;;;;;15.80;97.20;;;;;;5041459;28;19991;-69
2023/05/10 08:50:19;;;;;;;;;;;15.90;97.40;;;;;;5035583;28;20010;-70
2023/05/10 08:52:45;;;;;;;;;;;15.90;97.00;;;;;;5040542;28;20008;-70
2023/05/10 08:55:11;;;;;;;;;;;16.00;97.10;;;;;;5045709;28;20006;-70
2023/05/10 08:57:36;;;;;;;;;;;16.00;97.20;;;;;;5043642;27;19917;-69
2023/05/10 09:00:02;;;;;;;;;;;16.00;97.00;;;;;;5044771;27;19916;-70
2023/05/10 09:02:27;;;;;;;;;;;16.10;96.80;;;;;;5043141;28;19924;-70
2023/05/10 09:04:53;;;;;;;;;;;16.10;96.90;;;;;;5029983;28;20408;-70
2023/05/10 09:07:19;;;;;;;;;;;16.20;96.70;;;;;;5046820;28;19933;-69
2023/05/10 09:09:45;;;;;;;;;;;16.20;96.60;;;;;;5051588;27;19945;-70
2023/05/10 09:12:12;;;;;;;;;;;16.30;96.60;;;;;;5064717;27;19916;-72
2023/05/10 09:14:37;;;;;;;;;;;16.30;97.00;;;;;;5047112;28;19970;-71
2023/05/10 09:17:03;;;;;;;;;;;16.30;96.70;;;;;;5044600;27;19952;-70
2023/05/10 09:19:29;;;;;;;;;;;16.30;96.60;;;;;;5043238;28;19958;-70
2023/05/10 09:21:55;;;;;;;;;;;16.30;96.60;;;;;;5030966;27;21089;-70
2023/05/10 09:24:24;;;;;;;;;;;16.30;96.80;;;;;;5039136;28;19921;-70
2023/05/10 09:26:50;;;;;;;;;;;16.30;96.90;;;;;;5047356;28;19921;-70
2023/05/10 09:29:16;;;;;;;;;;;16.30;96.70;;;;;;5046815;28;19924;-69
2023/05/10 09:31:50;;;;;;;;;;;16.40;96.70;;;;;;5046713;28;20003;-69
2023/05/10 09:34:20;;;;;;;;;;;16.40;96.60;;;;;;5047136;28;20629;-71
2023/05/10 09:36:52;;;;;;;;;;;16.40;96.60;;;;;;5028608;28;19917;-71
2023/05/10 09:39:18;;;;;;;;;;;16.50;96.50;;;;;;5046186;28;19932;-70
2023/05/10 09:41:43;;;;;;;;;;;16.50;96.50;;;;;;5046240;28;19913;-70
2023/05/10 09:44:09;;;;;;;;;;;16.50;96.40;;;;;;5045715;28;19954;-70
2023/05/10 09:46:35;;;;;;;;;;;16.60;96.40;;;;;;5046307;28;20003;-69
2023/05/10 09:49:01;;;;;;;;;;;16.60;96.40;;;;;;5046201;28;20004;-69
2023/05/10 09:51:26;;;;;;;;;;;16.60;96.30;;;;;;5046558;28;19978;-70
2023/05/10 09:54:11;;;;;;;;;;;16.60;96.60;;;;;;5044807;28;19913;-69
2023/05/10 09:56:38;;;;;;;;;;;16.60;96.50;;;;;;5045281;28;19913;-70
2023/05/10 09:59:05;;;;;;;;;;;16.60;96.40;;;;;;5046121;28;20433;-70
2023/05/10 10:01:30;;;;;;;;;;;16.60;96.40;;;;;;5046309;28;20444;-69
2023/05/10 10:03:57;;;;;;;;;;;16.70;96.40;;;;;;5045390;28;19996;-70
2023/05/10 10:06:23;;;;;;;;;;;16.70;96.60;;;;;;5045798;28;19920;-69
2023/05/10 10:08:49;;;;;;;;;;;16.70;96.40;;;;;;5061387;28;19913;-70
2023/05/10 10:11:15;;;;;;;;;;;16.70;96.30;;;;;;5046289;28;19976;-69
2023/05/10 10:13:40;;;;;;;;;;;16.70;96.40;;;;;;5045636;28;19912;-69
2023/05/10 10:16:07;;;;;;;;;;;16.80;96.30;;;;;;5043225;28;19917;-69
2023/05/10 10:18:33;;;;;;;;;;;16.80;96.30;;;;;;5040628;28;19909;-69
2023/05/10 10:20:58;;;;;;;;;;;16.80;96.30;;;;;;5045697;28;19924;-70
2023/05/10 10:23:24;;;;;;;;;;;16.90;96.40;;;;;;5045517;28;20003;-70
2023/05/10 10:25:51;;;;;;;;;;;16.90;96.10;;;;;;5028459;28;19913;-70
2023/05/10 10:28:24;;;;;;;;;;;17.00;96.00;;;;;;5046143;28;19917;-71
2023/05/10 10:30:50;;;;;;;;;;;17.10;95.90;;;;;;5046108;28;19951;-71
2023/05/10 10:33:31;;;;;;;;;;;17.10;95.90;;;;;;5045636;28;20505;-70
2023/05/10 10:36:00;;;;;;;;;;;17.10;95.80;;;;;;5045903;28;19989;-70
2023/05/10 10:38:35;;;;;;;;;;;17.20;95.70;;;;;;5027767;28;20452;-69
2023/05/10 10:41:11;;;;;;;;;;;17.30;95.60;;;;;;5027316;28;20016;-70
2023/05/10 10:43:37;;;;;;;;;;;17.30;95.50;;;;;;5045475;28;19916;-70
2023/05/10 10:46:16;;;;;;;;;;;17.40;95.40;;;;;;5043859;28;19912;-70
2023/05/10 10:48:49;;;;;;;;;;;17.40;95.40;;;;;;5035242;28;19948;-70
2023/05/10 10:51:15;;;;;;;;;;;17.50;95.30;;;;;;5040001;28;19920;-70
2023/05/10 10:53:40;;;;;;;;;;;17.50;95.20;;;;;;5022131;28;19913;-70
2023/05/10 10:56:07;;;;;;;;;;;17.50;95.20;;;;;;5043372;28;19944;-70
2023/05/10 10:58:33;;;;;;;;;;;17.60;95.20;;;;;;5045402;28;20488;-69
2023/05/10 11:01:11;;;;;;;;;;;17.70;95.10;;;;;;5045246;28;19912;-70
2023/05/10 11:03:37;;;;;;;;;;;17.70;95.00;;;;;;5044762;28;20331;-70
2023/05/10 11:06:02;;;;;;;;;;;17.70;95.00;;;;;;5045374;28;19923;-69
2023/05/10 11:08:29;;;;;;;;;;;17.70;95.10;;;;;;5044857;28;19947;-70
2023/05/10 11:10:54;;;;;;;;;;;17.70;95.10;;;;;;5045145;28;19913;-69
2023/05/10 11:13:30;;;;;;;;;;;17.70;95.20;;;;;;5044952;28;19913;-69
2023/05/10 11:15:58;;;;;;;;;;;17.60;95.00;;;;;;5044451;28;19917;-70
2023/05/10 11:18:25;;;;;;;;;;;17.60;95.40;;;;;;5044228;28;19913;-70
2023/05/10 11:20:51;;;;;;;;;;;17.50;95.20;;;;;;5044693;28;19917;-70
2023/05/10 11:23:17;;;;;;;;;;;17.50;95.40;;;;;;5044523;28;19924;-70
2023/05/10 11:25:44;;;;;;;;;;;17.50;95.40;;;;;;5027081;28;19913;-70
2023/05/10 11:28:10;;;;;;;;;;;17.50;95.40;;;;;;5044549;28;20024;-70
2023/05/10 11:30:36;;;;;;;;;;;17.50;95.50;;;;;;5043436;28;19917;-70
2023/05/10 11:33:02;;;;;;;;;;;17.50;95.50;;;;;;5043658;28;20007;-70
2023/05/10 11:35:27;;;;;;;;;;;17.50;95.50;;;;;;5044476;28;19991;-69
2023/05/10 11:37:53;;;;;;;;;;;17.50;95.50;;;;;;5041049;27;19916;-69
2023/05/10 11:40:21;;;;;;;;;;;17.50;95.40;;;;;;5044873;27;19911;-70
2023/05/10 11:42:46;;;;;;;;;;;17.50;95.50;;;;;;5100871;27;19915;-70
2023/05/10 11:45:12;;;;;;;;;;;17.50;95.40;;;;;;5110809;27;19911;-69
2023/05/10 11:47:39;;;;;;;;;;;17.60;95.40;;;;;;5085710;27;19969;-70
2023/05/10 11:50:05;;;;;;;;;;;17.60;95.30;;;;;;5044712;28;19924;-70
2023/05/10 11:52:35;;;;;;;;;;;17.60;95.30;;;;;;5042968;28;20047;-70
2023/05/10 11:55:00;;;;;;;;;;;17.70;95.30;;;;;;5042332;28;19917;-70
2023/05/10 11:57:27;;;;;;;;;;;17.70;95.20;;;;;;5044038;28;19913;-70
2023/05/10 11:59:58;;;;;;;;;;;17.70;95.20;;;;;;5089047;27;19919;-70
2023/05/10 12:02:24;;;;;;;;;;;17.70;95.00;;;;;;5110674;27;19915;-70
2023/05/10 12:04:50;;;;;;;;;;;17.70;95.10;;;;;;5050527;27;19919;-70
2023/05/10 12:07:16;;;;;;;;;;;17.70;95.20;;;;;;5043356;28;20039;-69
2023/05/10 12:09:47;;;;;;;;;;;17.60;95.10;;;;;;5044236;28;20003;-70
2023/05/10 12:12:16;;;;;;;;;;;17.70;95.10;;;;;;5044299;28;19948;-70
2023/05/10 12:14:42;;;;;;;;;;;17.60;95.20;;;;;;5044583;28;20388;-69
2023/05/10 12:17:11;;;;;;;;;;;17.60;95.20;;;;;;5040454;27;19920;-69
2023/05/10 12:19:37;;;;;;;;;;;17.60;95.20;;;;;;5041416;28;20380;-70
2023/05/10 12:22:04;;;;;;;;;;;17.60;95.30;;;;;;5042879;28;19921;-70
2023/05/10 12:24:30;;;;;;;;;;;17.60;95.30;;;;;;5043785;28;19970;-69
2023/05/10 12:26:55;;;;;;;;;;;17.60;95.20;;;;;;5044512;28;20257;-70
2023/05/10 12:29:21;;;;;;;;;;;17.70;95.10;;;;;;5047394;28;19956;-69
2023/05/10 12:31:50;;;;;;;;;;;17.80;95.00;;;;;;5047912;28;19986;-69
2023/05/10 12:34:25;;;;;;;;;;;17.90;94.90;;;;;;5046410;28;19913;-70
2023/05/10 12:36:54;;;;;;;;;;;18.00;94.70;;;;;;5047675;28;20297;-69
2023/05/10 12:39:19;;;;;;;;;;;18.00;94.60;;;;;;5047996;28;20277;-69
2023/05/10 12:41:45;;;;;;;;;;;18.10;94.40;;;;;;5048414;27;19913;-70
2023/05/10 12:44:10;;;;;;;;;;;18.20;94.30;;;;;;5048422;28;20981;-70
2023/05/10 12:46:36;;;;;;;;;;;18.30;94.20;;;;;;5044382;28;19909;-70
2023/05/10 12:49:01;;;;;;;;;;;18.30;94.10;;;;;;5047992;28;19913;-70
2023/05/10 12:51:27;;;;;;;;;;;18.40;94.00;;;;;;5048558;28;19917;-70
2023/05/10 12:53:52;;;;;;;;;;;18.50;94.00;;;;;;5047986;28;19932;-70
2023/05/10 12:56:18;;;;;;;;;;;18.50;93.90;;;;;;5048068;28;19921;-70
2023/05/10 12:58:47;;;;;;;;;;;18.60;93.90;;;;;;5048207;28;19922;-71
2023/05/10 13:01:13;;;;;;;;;;;18.60;93.70;;;;;;5030158;28;19912;-70
2023/05/10 13:03:39;;;;;;;;;;;18.70;93.60;;;;;;5047895;28;19917;-71
2023/05/10 13:06:05;;;;;;;;;;;18.70;93.70;;;;;;5048332;28;20684;-70
2023/05/10 13:08:33;;;;;;;;;;;18.80;93.50;;;;;;5048148;28;19965;-70
2023/05/10 13:11:02;;;;;;;;;;;18.90;93.50;;;;;;5047599;28;19913;-70
2023/05/10 13:13:28;;;;;;;;;;;18.90;93.30;;;;;;5046945;28;19912;-70
2023/05/10 13:15:53;;;;;;;;;;;19.10;93.40;;;;;;5046194;28;19917;-70
2023/05/10 13:18:19;;;;;;;;;;;19.10;93.40;;;;;;5043391;28;19936;-71
2023/05/10 13:20:44;;;;;;;;;;;19.10;93.40;;;;;;5046987;28;19913;-70
2023/05/10 13:23:10;;;;;;;;;;;19.10;93.30;;;;;;5028876;28;19921;-70
2023/05/10 13:25:36;;;;;;;;;;;19.20;93.30;;;;;;5047035;28;20003;-71
2023/05/10 13:28:01;;;;;;;;;;;19.20;93.30;;;;;;5029025;28;19920;-71
2023/05/10 13:30:28;;;;;;;;;;;19.20;93.20;;;;;;5046722;28;20183;-70
2023/05/10 13:32:54;;;;;;;;;;;19.20;93.10;;;;;;5028790;28;20027;-71
2023/05/10 13:35:19;;;;;;;;;;;19.30;93.10;;;;;;5046703;28;20007;-70
2023/05/10 13:37:45;;;;;;;;;;;19.30;93.10;;;;;;5046810;28;19913;-70
2023/05/10 13:40:11;;;;;;;;;;;19.40;92.90;;;;;;5045326;28;20601;-70
2023/05/10 13:42:37;;;;;;;;;;;19.40;92.90;;;;;;5046284;28;19912;-70
2023/05/10 13:45:03;;;;;;;;;;;19.50;92.80;;;;;;5046798;28;19913;-71
2023/05/10 13:47:28;;;;;;;;;;;19.50;92.80;;;;;;5038071;28;20288;-70
2023/05/10 13:49:54;;;;;;;;;;;19.50;92.80;;;;;;5046227;28;19952;-70
2023/05/10 13:52:19;;;;;;;;;;;19.60;92.70;;;;;;5046282;28;20004;-70
2023/05/10 13:54:45;;;;;;;;;;;19.60;92.60;;;;;;5045843;28;19916;-70
2023/05/10 13:57:13;;;;;;;;;;;19.60;92.90;;;;;;5046478;28;19917;-71
2023/05/10 13:59:39;;;;;;;;;;;19.70;92.50;;;;;;5046313;28;20436;-70
2023/05/10 14:02:04;;;;;;;;;;;19.80;92.40;;;;;;5046231;28;19916;-70
2023/05/10 14:04:30;;;;;;;;;;;19.80;92.30;;;;;;5046330;28;19913;-70
2023/05/10 14:06:55;;;;;;;;;;;19.80;92.40;;;;;;5046282;28;19940;-71
2023/05/10 14:09:21;;;;;;;;;;;19.90;92.00;;;;;;5115339;27;19969;-70
2023/05/10 14:11:47;;;;;;;;;;;19.90;92.10;;;;;;5058749;27;19936;-71
2023/05/10 14:14:13;;;;;;;;;;;20.00;92.20;;;;;;5028424;28;19913;-70